createdAt,value
2022-09-11T00:00:57.563Z,98818.97
2022-09-11T00:02:06.290Z,98812.78
2022-09-11T00:03:23.392Z,98813.78
2022-09-11T00:04:33.578Z,98804.00
2022-09-11T00:05:41.774Z,98811.69
2022-09-11T00:06:45.394Z,98815.22
2022-09-11T00:07:49.179Z,98808.78
2022-09-11T00:09:01.652Z,98816.53
2022-09-11T00:10:07.997Z,98816.66
2022-09-11T00:11:18.591Z,98820.06
2022-09-11T00:12:22.895Z,98816.53
2022-09-11T00:13:26.847Z,98810.63
2022-09-11T00:14:30.517Z,98808.50
2022-09-11T00:15:43.729Z,98804.59
2022-09-11T00:16:47.588Z,98816.66
2022-09-11T00:17:51.511Z,98816.81
2022-09-11T00:18:59.403Z,98811.47
2022-09-11T00:20:04.852Z,98807.09
2022-09-11T00:21:08.933Z,98800.91
2022-09-11T00:22:12.410Z,98803.03
2022-09-11T00:23:18.314Z,98780.53
2022-09-11T00:24:21.966Z,98805.44
2022-09-11T00:25:25.804Z,98803.59
2022-09-11T00:26:35.855Z,98802.75
2022-09-11T00:27:39.426Z,98804.28
2022-09-11T00:28:47.022Z,98799.69
2022-09-11T00:29:50.751Z,98813.16
2022-09-11T00:31:05.451Z,98810.47
2022-09-11T00:32:11.198Z,98813.16
2022-09-11T00:33:18.883Z,98813.16
2022-09-11T00:34:32.047Z,98812.16
2022-09-11T00:35:36.311Z,98806.09
2022-09-11T00:36:41.822Z,98806.78
2022-09-11T00:37:45.540Z,98807.50
2022-09-11T00:38:50.407Z,98801.59
2022-09-11T00:39:54.670Z,98810.03
2022-09-11T00:41:02.456Z,98805.81
2022-09-11T00:42:06.853Z,98791.19
2022-09-11T00:43:13.882Z,98798.06
2022-09-11T00:44:18.532Z,98810.88
2022-09-11T00:45:27.637Z,98802.16
2022-09-11T00:46:43.390Z,98809.03
2022-09-11T00:47:48.770Z,98803.66
2022-09-11T00:48:56.150Z,98808.88
2022-09-11T00:50:20.414Z,98792.13
2022-09-11T00:51:33.892Z,98804.34
2022-09-11T00:52:49.013Z,98797.16
2022-09-11T00:53:58.676Z,98802.69
2022-09-11T00:55:14.746Z,98796.47
2022-09-11T00:56:22.794Z,98796.31
2022-09-11T00:57:33.162Z,98801.56
2022-09-11T00:58:42.806Z,98801.56
2022-09-11T00:59:49.584Z,98798.16
2022-09-11T01:00:57.124Z,98804.91
2022-09-11T01:02:02.320Z,98795.81
2022-09-11T01:03:06.222Z,98799.72
2022-09-11T01:04:12.354Z,98785.53
2022-09-11T01:05:17.625Z,98801.56
2022-09-11T01:06:21.808Z,98793.53
2022-09-11T01:07:29.330Z,98792.66
2022-09-11T01:08:36.523Z,98786.09
2022-09-11T01:09:43.252Z,98789.75
2022-09-11T01:11:04.688Z,98802.22
2022-09-11T01:12:36.313Z,98799.41
2022-09-11T01:14:06.517Z,98801.22
2022-09-11T01:15:23.694Z,98790.13
2022-09-11T01:16:39.370Z,98802.75
2022-09-11T01:18:31.793Z,98806.16
2022-09-11T01:20:21.579Z,98807.66
2022-09-11T01:22:07.855Z,98806.66
2022-09-11T01:23:55.315Z,98779.25
2022-09-11T01:25:38.209Z,98782.56
2022-09-11T01:26:53.809Z,98794.13
2022-09-11T01:28:06.638Z,98768.03
2022-09-11T01:29:24.609Z,98799.19
2022-09-11T01:30:43.319Z,98800.72
2022-09-11T01:32:04.927Z,98773.06
2022-09-11T01:33:34.547Z,98788.53
2022-09-11T01:35:39.230Z,98790.06
2022-09-11T01:36:54.147Z,98783.63
2022-09-11T01:38:03.773Z,98783.31
2022-09-11T01:39:07.769Z,98794.25
2022-09-11T01:40:26.316Z,98790.06
2022-09-11T01:41:53.306Z,98790.75
2022-09-11T01:43:12.513Z,98788.06
2022-09-11T01:44:50.469Z,98785.25
2022-09-11T01:45:58.427Z,98773.31
2022-09-11T01:47:07.067Z,98789.63
2022-09-11T01:48:16.398Z,98787.78
2022-09-11T01:49:56.065Z,98786.94
2022-09-11T01:51:03.811Z,98787.78
2022-09-11T01:52:19.657Z,98777.34
2022-09-11T01:53:32.898Z,98784.38
2022-09-11T01:54:56.373Z,98778.19
2022-09-11T01:56:11.292Z,98780.19
2022-09-11T01:57:37.810Z,98777.69
2022-09-11T01:58:45.558Z,98777.50
2022-09-11T01:59:57.976Z,98777.69
2022-09-11T02:01:17.270Z,98779.69
2022-09-11T02:02:33.399Z,98782.72
2022-09-11T02:03:51.110Z,98775.38
2022-09-11T02:05:09.893Z,98773.53
2022-09-11T02:06:31.129Z,98777.06
2022-09-11T02:08:17.630Z,98775.06
2022-09-11T02:09:27.618Z,98781.25
2022-09-11T02:10:40.919Z,98781.41
2022-09-11T02:11:49.686Z,98771.88
2022-09-11T02:13:28.783Z,98762.06
2022-09-11T02:14:53.542Z,98769.63
2022-09-11T02:16:20.264Z,98779.34
2022-09-11T02:17:55.166Z,98771.31
2022-09-11T02:19:14.087Z,98761.59
2022-09-11T02:20:18.127Z,98759.22
2022-09-11T02:21:21.885Z,98768.47
2022-09-11T02:22:26.907Z,98765.78
2022-09-11T02:23:30.567Z,98761.16
2022-09-11T02:24:34.473Z,98762.00
2022-09-11T02:25:38.206Z,98770.69
2022-09-11T02:26:50.841Z,98765.34
2022-09-11T02:27:55.117Z,98757.16
2022-09-11T02:28:59.824Z,98761.50
2022-09-11T02:30:03.916Z,98758.16
2022-09-11T02:31:08.126Z,98761.34
2022-09-11T02:32:12.404Z,98755.84
2022-09-11T02:33:38.191Z,98751.34
2022-09-11T02:34:45.976Z,98753.03
2022-09-11T02:35:54.808Z,98741.63
2022-09-11T02:37:20.654Z,98741.28
2022-09-11T02:38:41.535Z,98748.50
2022-09-11T02:40:39.074Z,98741.97
2022-09-11T02:41:57.837Z,98751.00
2022-09-11T02:43:28.741Z,98743.81
2022-09-11T02:45:21.832Z,98749.00
2022-09-11T02:47:09.759Z,98743.53
2022-09-11T02:49:14.345Z,98747.19
2022-09-11T02:50:41.749Z,98750.00
2022-09-11T02:51:52.365Z,98742.69
2022-09-11T02:53:14.531Z,98744.53
2022-09-11T02:55:00.079Z,98747.03
2022-09-11T02:56:16.597Z,98750.00
2022-09-11T02:57:37.082Z,98744.38
2022-09-11T02:58:56.586Z,98741.13
2022-09-11T03:00:05.871Z,98760.44
2022-09-11T03:01:10.303Z,98754.38
2022-09-11T03:02:15.615Z,98757.91
2022-09-11T03:03:20.845Z,98751.56
2022-09-11T03:04:25.434Z,98751.84
2022-09-11T03:05:29.285Z,98748.88
2022-09-11T03:06:33.197Z,98745.38
2022-09-11T03:07:37.273Z,98751.06
2022-09-11T03:08:41.231Z,98747.38
2022-09-11T03:09:44.988Z,98754.47
2022-09-11T03:10:50.257Z,98748.94
2022-09-11T03:11:55.213Z,98743.75
2022-09-11T03:12:59.827Z,98748.81
2022-09-11T03:14:03.333Z,98743.88
2022-09-11T03:15:10.116Z,98739.69
2022-09-11T03:16:14.092Z,98751.47
2022-09-11T03:17:17.982Z,98748.41
2022-09-11T03:18:21.594Z,98741.19
2022-09-11T03:19:25.877Z,98756.84
2022-09-11T03:20:29.365Z,98754.16
2022-09-11T03:21:35.282Z,98748.66
2022-09-11T03:22:39.865Z,98747.09
2022-09-11T03:23:44.008Z,98745.41
2022-09-11T03:24:48.280Z,98746.81
2022-09-11T03:25:52.308Z,98750.78
2022-09-11T03:26:56.062Z,98765.56
2022-09-11T03:27:59.603Z,98757.34
2022-09-11T03:29:04.712Z,98753.47
2022-09-11T03:30:09.735Z,98759.53
2022-09-11T03:31:14.089Z,98764.19
2022-09-11T03:32:17.949Z,98758.81
2022-09-11T03:33:21.444Z,98758.81
2022-09-11T03:34:26.226Z,98759.81
2022-09-11T03:35:30.008Z,98756.13
2022-09-11T03:36:34.565Z,98761.63
2022-09-11T03:37:38.530Z,98758.09
2022-09-11T03:38:42.110Z,98756.25
2022-09-11T03:39:45.854Z,98762.50
2022-09-11T03:40:49.401Z,98757.13
2022-09-11T03:41:54.321Z,98759.94
2022-09-11T03:42:59.841Z,98759.81
2022-09-11T03:44:03.600Z,98751.91
2022-09-11T03:45:07.649Z,98754.59
2022-09-11T03:46:11.621Z,98757.44
2022-09-11T03:47:15.295Z,98756.44
2022-09-11T03:48:20.108Z,98757.13
2022-09-11T03:49:23.764Z,98760.78
2022-09-11T03:50:28.103Z,98762.78
2022-09-11T03:51:32.221Z,98756.59
2022-09-11T03:52:36.326Z,98770.81
2022-09-11T03:53:40.141Z,98766.47
2022-09-11T03:54:43.740Z,98767.31
2022-09-11T03:55:50.183Z,98767.31
2022-09-11T03:56:53.829Z,98759.72
2022-09-11T03:57:59.465Z,98772.00
2022-09-11T03:59:03.941Z,98769.47
2022-09-11T04:00:09.054Z,98765.41
2022-09-11T04:01:15.874Z,98765.78
2022-09-11T04:02:19.523Z,98770.16
2022-09-11T04:03:23.094Z,98759.72
2022-09-11T04:04:26.855Z,98767.63
2022-09-11T04:05:30.694Z,98769.47
2022-09-11T04:06:34.335Z,98767.63
2022-09-11T04:07:38.697Z,98764.25
2022-09-11T04:08:42.334Z,98764.97
2022-09-11T04:09:46.685Z,98768.47
2022-09-11T04:10:57.147Z,98772.84
2022-09-11T04:12:00.729Z,98764.25
2022-09-11T04:13:05.265Z,98763.13
2022-09-11T04:14:08.935Z,98758.88
2022-09-11T04:15:12.691Z,98762.41
2022-09-11T04:16:19.606Z,98773.00
2022-09-11T04:17:24.613Z,98770.44
2022-09-11T04:18:32.544Z,98769.47
2022-09-11T04:19:38.589Z,98763.41
2022-09-11T04:20:42.366Z,98765.09
2022-09-11T04:21:45.979Z,98767.75
2022-09-11T04:22:50.033Z,98772.44
2022-09-11T04:23:56.603Z,98766.88
2022-09-11T04:25:00.461Z,98769.09
2022-09-11T04:26:14.641Z,98774.59
2022-09-11T04:27:19.163Z,98771.09
2022-09-11T04:28:23.768Z,98771.94
2022-09-11T04:29:28.827Z,98772.22
2022-09-11T04:30:35.674Z,98766.03
2022-09-11T04:31:41.465Z,98775.59
2022-09-11T04:32:46.393Z,98770.09
2022-09-11T04:33:50.461Z,98770.25
2022-09-11T04:34:54.315Z,98769.38
2022-09-11T04:35:57.787Z,98771.94
2022-09-11T04:37:01.530Z,98771.22
2022-09-11T04:38:05.097Z,98772.78
2022-09-11T04:39:09.402Z,98770.38
2022-09-11T04:40:12.943Z,98771.09
2022-09-11T04:41:17.040Z,98771.94
2022-09-11T04:42:24.607Z,98777.13
2022-09-11T04:43:29.215Z,98768.69
2022-09-11T04:44:32.840Z,98776.13
2022-09-11T04:45:36.783Z,98773.44
2022-09-11T04:46:41.188Z,98777.63
2022-09-11T04:47:44.901Z,98768.75
2022-09-11T04:48:52.269Z,98771.44
2022-09-11T04:49:55.826Z,98765.41
2022-09-11T04:51:08.623Z,98765.56
2022-09-11T04:52:12.271Z,98768.75
2022-09-11T04:53:15.985Z,98767.94
2022-09-11T04:54:21.458Z,98768.94
2022-09-11T04:55:26.012Z,98769.78
2022-09-11T04:56:33.013Z,98768.25
2022-09-11T04:57:36.581Z,98766.25
2022-09-11T04:58:43.153Z,98769.78
2022-09-11T04:59:48.692Z,98768.75
2022-09-11T05:00:52.288Z,98770.44
2022-09-11T05:01:55.965Z,98767.09
2022-09-11T05:02:59.490Z,98767.09
2022-09-11T05:04:03.359Z,98768.75
2022-09-11T05:05:09.379Z,98770.00
2022-09-11T05:06:16.762Z,98778.88
2022-09-11T05:07:20.333Z,98770.44
2022-09-11T05:08:26.822Z,98769.31
2022-09-11T05:09:30.600Z,98772.84
2022-09-11T05:10:39.054Z,98777.50
2022-09-11T05:11:43.258Z,98773.84
2022-09-11T05:12:47.216Z,98770.16
2022-09-11T05:13:50.717Z,98773.50
2022-09-11T05:14:54.457Z,98769.81
2022-09-11T05:16:05.802Z,98767.16
2022-09-11T05:17:10.258Z,98760.78
2022-09-11T05:18:13.778Z,98759.94
2022-09-11T05:19:17.325Z,98765.19
2022-09-11T05:20:21.011Z,98763.47
2022-09-11T05:21:26.896Z,98759.66
2022-09-11T05:22:30.727Z,98760.50
2022-09-11T05:23:34.857Z,98758.09
2022-09-11T05:24:39.580Z,98760.50
2022-09-11T05:25:43.426Z,98758.81
2022-09-11T05:26:46.937Z,98764.00
2022-09-11T05:27:50.508Z,98760.50
2022-09-11T05:28:58.973Z,98770.38
2022-09-11T05:30:03.166Z,98771.91
2022-09-11T05:31:17.298Z,98761.03
2022-09-11T05:32:21.083Z,98768.25
2022-09-11T05:33:26.949Z,98772.47
2022-09-11T05:34:30.738Z,98766.94
2022-09-11T05:35:34.438Z,98764.25
2022-09-11T05:36:38.288Z,98757.91
2022-09-11T05:37:41.759Z,98766.78
2022-09-11T05:38:45.964Z,98746.81
2022-09-11T05:39:49.557Z,98759.91
2022-09-11T05:40:53.105Z,98751.31
2022-09-11T05:41:56.865Z,98761.59
2022-09-11T05:43:00.386Z,98764.25
2022-09-11T05:44:04.189Z,98761.59
2022-09-11T05:45:08.369Z,98770.97
2022-09-11T05:46:15.608Z,98771.69
2022-09-11T05:47:19.568Z,98771.69
2022-09-11T05:48:23.974Z,98767.00
2022-09-11T05:49:27.539Z,98769.69
2022-09-11T05:50:32.855Z,98766.00
2022-09-11T05:51:37.870Z,98750.38
2022-09-11T05:52:41.866Z,98761.31
2022-09-11T05:53:46.711Z,98772.75
2022-09-11T05:54:50.414Z,98768.91
2022-09-11T05:55:55.317Z,98767.38
2022-09-11T05:56:58.924Z,98774.09
2022-09-11T05:58:02.953Z,98765.22
2022-09-11T05:59:15.885Z,98771.41
2022-09-11T06:00:20.846Z,98768.06
2022-09-11T06:01:28.526Z,98765.69
2022-09-11T06:02:32.319Z,98769.56
2022-09-11T06:03:38.989Z,98769.56
2022-09-11T06:04:42.719Z,98770.72
2022-09-11T06:05:46.205Z,98771.91
2022-09-11T06:06:50.312Z,98772.56
2022-09-11T06:07:54.369Z,98769.50
2022-09-11T06:08:58.392Z,98771.34
2022-09-11T06:10:03.347Z,98772.53
2022-09-11T06:11:08.393Z,98767.31
2022-09-11T06:12:12.759Z,98783.47
2022-09-11T06:13:19.329Z,98774.72
2022-09-11T06:14:23.340Z,98781.28
2022-09-11T06:15:45.536Z,98764.69
2022-09-11T06:16:50.049Z,98781.78
2022-09-11T06:17:53.727Z,98782.75
2022-09-11T06:18:57.750Z,98781.78
2022-09-11T06:20:01.881Z,98783.47
2022-09-11T06:21:11.464Z,98774.03
2022-09-11T06:22:15.203Z,98785.13
2022-09-11T06:23:18.991Z,98774.41
2022-09-11T06:24:22.548Z,98779.44
2022-09-11T06:25:26.765Z,98777.78
2022-09-11T06:26:30.309Z,98780.16
2022-09-11T06:27:34.122Z,98778.31
2022-09-11T06:28:40.137Z,98775.47
2022-09-11T06:29:44.998Z,98782.03
2022-09-11T06:30:53.327Z,98776.19
2022-09-11T06:31:56.963Z,98779.97
2022-09-11T06:33:00.458Z,98777.88
2022-09-11T06:34:04.305Z,98780.13
2022-09-11T06:35:08.492Z,98775.63
2022-09-11T06:36:19.913Z,98768.44
2022-09-11T06:37:23.813Z,98767.34
2022-09-11T06:38:28.494Z,98772.53
2022-09-11T06:39:32.065Z,98772.72
2022-09-11T06:40:38.239Z,98767.88
2022-09-11T06:41:42.291Z,98758.97
2022-09-11T06:42:46.189Z,98765.00
2022-09-11T06:43:49.712Z,98768.53
2022-09-11T06:44:53.197Z,98766.72
2022-09-11T06:46:04.278Z,98763.03
2022-09-11T06:47:08.063Z,98771.06
2022-09-11T06:48:12.119Z,98765.84
2022-09-11T06:49:16.339Z,98765.00
2022-09-11T06:50:19.824Z,98768.41
2022-09-11T06:51:24.221Z,98765.00
2022-09-11T06:52:28.420Z,98769.53
2022-09-11T06:53:32.274Z,98755.78
2022-09-11T06:54:35.887Z,98768.19
2022-09-11T06:55:40.608Z,98763.16
2022-09-11T06:56:45.309Z,98771.91
2022-09-11T06:57:49.892Z,98766.53
2022-09-11T06:58:53.779Z,98767.38
2022-09-11T07:00:00.139Z,98768.19
2022-09-11T07:01:06.433Z,98763.97
2022-09-11T07:02:10.588Z,98774.91
2022-09-11T07:03:15.364Z,98771.22
2022-09-11T07:04:19.042Z,98773.75
2022-09-11T07:05:23.454Z,98767.22
2022-09-11T07:06:30.417Z,98768.06
2022-09-11T07:07:34.224Z,98765.19
2022-09-11T07:08:39.653Z,98755.09
2022-09-11T07:09:43.195Z,98756.81
2022-09-11T07:10:46.881Z,98758.31
2022-09-11T07:11:50.894Z,98760.66
2022-09-11T07:12:55.985Z,98760.66
2022-09-11T07:14:01.719Z,98761.38
2022-09-11T07:15:07.750Z,98764.88
2022-09-11T07:16:14.552Z,98761.19
2022-09-11T07:17:19.021Z,98758.16
2022-09-11T07:18:22.457Z,98753.97
2022-09-11T07:19:26.437Z,98765.56
2022-09-11T07:20:30.053Z,98758.03
2022-09-11T07:21:34.611Z,98758.72
2022-09-11T07:22:39.185Z,98758.34
2022-09-11T07:23:46.626Z,98760.56
2022-09-11T07:24:52.750Z,98765.75
2022-09-11T07:25:56.243Z,98758.53
2022-09-11T07:27:00.962Z,98763.06
2022-09-11T07:28:05.394Z,98769.97
2022-09-11T07:29:09.032Z,98763.91
2022-09-11T07:30:14.016Z,98765.25
2022-09-11T07:31:35.471Z,98759.72
2022-09-11T07:32:39.160Z,98769.13
2022-09-11T07:33:48.935Z,98760.56
2022-09-11T07:34:52.582Z,98763.59
2022-09-11T07:35:56.324Z,98765.09
2022-09-11T07:36:59.963Z,98766.94
2022-09-11T07:38:03.447Z,98760.03
2022-09-11T07:39:07.298Z,98763.06
2022-09-11T07:40:11.221Z,98771.97
2022-09-11T07:41:18.768Z,98770.47
2022-09-11T07:42:23.486Z,98763.91
2022-09-11T07:43:27.384Z,98766.41
2022-09-11T07:44:30.932Z,98758.53
2022-09-11T07:45:34.559Z,98765.75
2022-09-11T07:46:41.707Z,98764.25
2022-09-11T07:47:45.343Z,98767.06
2022-09-11T07:48:49.215Z,98762.88
2022-09-11T07:49:52.692Z,98765.56
2022-09-11T07:51:05.529Z,98769.25
2022-09-11T07:52:12.641Z,98770.25
2022-09-11T07:53:19.737Z,98770.25
2022-09-11T07:54:23.409Z,98770.41
2022-09-11T07:55:26.930Z,98765.72
2022-09-11T07:56:31.248Z,98772.41
2022-09-11T07:57:35.307Z,98774.78
2022-09-11T07:58:42.934Z,98763.22
2022-09-11T07:59:46.652Z,98773.25
2022-09-11T08:00:58.179Z,98772.94
2022-09-11T08:02:02.646Z,98779.31
2022-09-11T08:03:07.286Z,98776.78
2022-09-11T08:04:14.458Z,98779.47
2022-09-11T08:05:18.807Z,98769.56
2022-09-11T08:06:24.011Z,98768.22
2022-09-11T08:07:27.639Z,98778.31
2022-09-11T08:08:33.223Z,98775.09
2022-09-11T08:09:37.113Z,98778.97
2022-09-11T08:10:41.086Z,98781.31
2022-09-11T08:11:48.981Z,98787.22
2022-09-11T08:12:56.821Z,98780.84
2022-09-11T08:14:03.162Z,98774.28
2022-09-11T08:15:10.867Z,98776.13
2022-09-11T08:16:14.674Z,98774.63
2022-09-11T08:17:18.230Z,98782.22
2022-09-11T08:18:21.757Z,98783.03
2022-09-11T08:19:25.648Z,98785.88
2022-09-11T08:20:29.387Z,98788.56
2022-09-11T08:21:33.489Z,98793.78
2022-09-11T08:22:37.811Z,98780.69
2022-09-11T08:23:44.292Z,98778.16
2022-09-11T08:24:48.749Z,98792.41
2022-09-11T08:25:54.024Z,98788.41
2022-09-11T08:26:57.982Z,98791.09
2022-09-11T08:28:01.771Z,98780.16
2022-09-11T08:29:05.932Z,98785.53
2022-09-11T08:30:11.786Z,98792.03
2022-09-11T08:31:15.633Z,98782.97
2022-09-11T08:32:20.622Z,98779.63
2022-09-11T08:33:24.770Z,98778.97
2022-09-11T08:34:28.269Z,98788.34
2022-09-11T08:35:34.505Z,98789.06
2022-09-11T08:36:38.715Z,98782.00
2022-09-11T08:37:43.340Z,98776.78
2022-09-11T08:38:48.349Z,98786.84
2022-09-11T08:39:52.039Z,98786.69
2022-09-11T08:40:59.255Z,98786.38
2022-09-11T08:42:16.646Z,98785.53
2022-09-11T08:43:31.670Z,98790.19
2022-09-11T08:44:58.906Z,98787.50
2022-09-11T08:46:10.990Z,98784.16
2022-09-11T08:47:22.312Z,98787.50
2022-09-11T08:49:02.452Z,98784.84
2022-09-11T08:50:18.372Z,98790.19
2022-09-11T08:51:22.293Z,98780.31
2022-09-11T08:52:26.285Z,98792.75
2022-09-11T08:53:33.385Z,98793.41
2022-09-11T08:54:41.126Z,98790.91
2022-09-11T08:56:00.467Z,98793.06
2022-09-11T08:57:37.977Z,98796.47
2022-09-11T08:59:24.028Z,98796.47
2022-09-11T09:00:51.597Z,98796.78
2022-09-11T09:02:39.322Z,98793.06
2022-09-11T09:04:13.988Z,98799.28
2022-09-11T09:05:28.491Z,98795.44
2022-09-11T09:06:53.427Z,98796.97
2022-09-11T09:08:35.537Z,98799.16
2022-09-11T09:10:31.460Z,98806.72
2022-09-11T09:12:17.019Z,98799.00
2022-09-11T09:14:07.043Z,98784.06
2022-09-11T09:16:02.636Z,98800.03
2022-09-11T09:17:25.225Z,98794.66
2022-09-11T09:18:38.616Z,98790.13
2022-09-11T09:20:01.444Z,98800.19
2022-09-11T09:21:16.096Z,98796.50
2022-09-11T09:22:33.539Z,98799.53
2022-09-11T09:23:47.084Z,98804.91
2022-09-11T09:25:00.112Z,98803.72
2022-09-11T09:26:04.131Z,98801.88
2022-09-11T09:27:17.934Z,98801.03
2022-09-11T09:28:25.835Z,98801.88
2022-09-11T09:29:38.456Z,98799.19
2022-09-11T09:30:56.638Z,98799.72
2022-09-11T09:32:16.175Z,98803.06
2022-09-11T09:33:59.290Z,98799.53
2022-09-11T09:35:15.659Z,98797.53
2022-09-11T09:36:28.396Z,98803.72
2022-09-11T09:37:32.247Z,98808.28
2022-09-11T09:38:36.144Z,98806.78
2022-09-11T09:39:40.586Z,98802.06
2022-09-11T09:41:16.547Z,98803.91
2022-09-11T09:42:57.337Z,98804.09
2022-09-11T09:44:19.832Z,98795.66
2022-09-11T09:45:52.357Z,98804.75
2022-09-11T09:46:56.659Z,98804.75
2022-09-11T09:48:01.503Z,98810.94
2022-09-11T09:49:05.325Z,98809.94
2022-09-11T09:50:25.678Z,98808.94
2022-09-11T09:51:29.601Z,98805.22
2022-09-11T09:52:36.192Z,98810.28
2022-09-11T09:53:50.831Z,98805.41
2022-09-11T09:55:04.102Z,98807.94
2022-09-11T09:56:13.121Z,98800.38
2022-09-11T09:57:18.720Z,98797.34
2022-09-11T09:58:30.834Z,98797.53
2022-09-11T09:59:49.974Z,98800.22
2022-09-11T10:00:53.627Z,98800.72
2022-09-11T10:01:58.822Z,98801.06
2022-09-11T10:03:22.860Z,98806.78
2022-09-11T10:04:30.663Z,98805.75
2022-09-11T10:05:42.355Z,98802.91
2022-09-11T10:06:49.621Z,98793.81
2022-09-11T10:07:57.593Z,98798.88
2022-09-11T10:09:03.433Z,98787.44
2022-09-11T10:10:26.995Z,98789.28
2022-09-11T10:11:31.475Z,98800.56
2022-09-11T10:12:36.276Z,98795.00
2022-09-11T10:13:54.685Z,98797.34
2022-09-11T10:15:03.350Z,98800.56
2022-09-11T10:16:25.854Z,98792.88
2022-09-11T10:17:29.829Z,98799.75
2022-09-11T10:18:43.131Z,98800.41
2022-09-11T10:19:46.884Z,98804.47
2022-09-11T10:20:51.851Z,98813.53
2022-09-11T10:22:27.546Z,98814.03
2022-09-11T10:23:44.289Z,98808.66
2022-09-11T10:25:21.861Z,98811.34
2022-09-11T10:26:30.065Z,98805.66
2022-09-11T10:27:46.660Z,98807.16
2022-09-11T10:28:53.951Z,98810.50
2022-09-11T10:29:59.125Z,98808.81
2022-09-11T10:31:05.161Z,98814.72
2022-09-11T10:32:18.378Z,98807.31
2022-09-11T10:33:40.115Z,98813.34
2022-09-11T10:34:44.136Z,98808.16
2022-09-11T10:35:56.696Z,98805.13
2022-09-11T10:37:21.375Z,98808.16
2022-09-11T10:38:45.918Z,98811.50
2022-09-11T10:39:51.251Z,98805.09
2022-09-11T10:41:19.702Z,98808.31
2022-09-11T10:42:29.137Z,98802.94
2022-09-11T10:43:47.446Z,98808.81
2022-09-11T10:44:54.973Z,98794.69
2022-09-11T10:46:23.222Z,98808.31
2022-09-11T10:47:33.303Z,98806.28
2022-09-11T10:48:42.361Z,98803.28
2022-09-11T10:49:47.295Z,98794.84
2022-09-11T10:51:07.765Z,98810.31
2022-09-11T10:52:11.211Z,98809.13
2022-09-11T10:53:23.443Z,98807.09
2022-09-11T10:54:53.352Z,98805.94
2022-09-11T10:56:06.012Z,98794.00
2022-09-11T10:57:43.366Z,98797.72
2022-09-11T10:58:55.174Z,98805.13
2022-09-11T11:00:31.085Z,98807.97
2022-09-11T11:01:34.802Z,98791.34
2022-09-11T11:02:45.248Z,98804.59
2022-09-11T11:03:49.371Z,98806.63
2022-09-11T11:04:53.026Z,98805.44
2022-09-11T11:07:05.147Z,98806.09
2022-09-11T11:08:29.511Z,98813.50
2022-09-11T11:10:03.369Z,98803.59
2022-09-11T11:11:27.550Z,98804.44
2022-09-11T11:12:53.345Z,98806.78
2022-09-11T11:14:57.162Z,98809.97
2022-09-11T11:16:50.315Z,98812.31
2022-09-11T11:18:29.219Z,98811.84
2022-09-11T11:20:16.326Z,98818.56
2022-09-11T11:21:37.899Z,98814.88
2022-09-11T11:23:16.433Z,98822.09
2022-09-11T11:25:00.221Z,98822.09
2022-09-11T11:26:28.335Z,98814.88
2022-09-11T11:27:51.401Z,98820.25
2022-09-11T11:29:56.950Z,98820.91
2022-09-11T11:31:12.629Z,98824.44
2022-09-11T11:32:35.652Z,98824.25
2022-09-11T11:34:12.022Z,98815.34
2022-09-11T11:35:44.919Z,98817.03
2022-09-11T11:37:18.175Z,98823.25
2022-09-11T11:38:51.319Z,98824.06
2022-09-11T11:40:05.423Z,98810.16
2022-09-11T11:41:35.613Z,98825.28
2022-09-11T11:42:56.509Z,98826.09
2022-09-11T11:44:06.790Z,98829.81
2022-09-11T11:45:32.144Z,98822.25
2022-09-11T11:46:54.362Z,98823.06
2022-09-11T11:48:02.102Z,98828.47
2022-09-11T11:49:25.563Z,98827.63
2022-09-11T11:50:44.888Z,98822.41
2022-09-11T11:52:43.270Z,98820.09
2022-09-11T11:54:21.794Z,98814.34
2022-09-11T11:55:33.224Z,98808.63
2022-09-11T11:56:50.534Z,98815.19
2022-09-11T11:58:22.873Z,98812.31
2022-09-11T11:59:54.446Z,98816.72
2022-09-11T12:01:04.653Z,98823.59
2022-09-11T12:02:10.900Z,98829.47
2022-09-11T12:03:23.843Z,98811.16
2022-09-11T12:05:03.461Z,98824.59
2022-09-11T12:06:08.918Z,98817.19
2022-09-11T12:07:32.693Z,98815.50
2022-09-11T12:08:46.923Z,98822.56
2022-09-11T12:09:54.893Z,98819.88
2022-09-11T12:11:06.500Z,98829.13
2022-09-11T12:12:13.148Z,98826.44
2022-09-11T12:13:20.659Z,98822.09
2022-09-11T12:14:34.581Z,98822.09
2022-09-11T12:15:38.563Z,98822.25
2022-09-11T12:16:44.432Z,98828.31
2022-09-11T12:18:02.471Z,98825.44
2022-09-11T12:19:14.591Z,98825.09
2022-09-11T12:20:41.897Z,98816.88
2022-09-11T12:21:54.829Z,98829.47
2022-09-11T12:22:59.015Z,98817.34
2022-09-11T12:24:02.908Z,98821.72
2022-09-11T12:25:29.074Z,98823.59
2022-09-11T12:26:32.713Z,98825.44
2022-09-11T12:27:36.655Z,98821.72
2022-09-11T12:28:41.122Z,98814.50
2022-09-11T12:30:16.217Z,98814.66
2022-09-11T12:31:19.775Z,98808.28
2022-09-11T12:32:59.167Z,98807.44
2022-09-11T12:34:02.906Z,98815.34
2022-09-11T12:35:32.555Z,98807.44
2022-09-11T12:37:05.465Z,98808.63
2022-09-11T12:38:09.199Z,98809.94
2022-09-11T12:39:27.728Z,98816.16
2022-09-11T12:40:49.025Z,98809.25
2022-09-11T12:41:53.649Z,98814.13
2022-09-11T12:43:19.188Z,98811.59
2022-09-11T12:44:48.670Z,98816.44
2022-09-11T12:45:52.464Z,98808.03
2022-09-11T12:46:58.698Z,98819.28
2022-09-11T12:48:12.494Z,98811.19
2022-09-11T12:49:23.167Z,98804.69
2022-09-11T12:50:29.032Z,98811.56
2022-09-11T12:51:41.429Z,98807.84
2022-09-11T12:52:57.232Z,98800.09
2022-09-11T12:54:12.515Z,98794.41
2022-09-11T12:55:28.473Z,98799.75
2022-09-11T12:56:35.011Z,98798.72
2022-09-11T12:57:41.033Z,98801.09
2022-09-11T12:58:51.990Z,98794.03
2022-09-11T13:00:03.807Z,98793.84
2022-09-11T13:01:10.682Z,98793.66
2022-09-11T13:02:57.992Z,98793.47
2022-09-11T13:04:12.441Z,98799.69
2022-09-11T13:05:34.569Z,98798.72
2022-09-11T13:06:47.631Z,98794.31
2022-09-11T13:08:10.616Z,98797.00
2022-09-11T13:09:28.687Z,98789.94
2022-09-11T13:10:39.570Z,98779.88
2022-09-11T13:11:49.556Z,98797.34
2022-09-11T13:12:55.988Z,98790.94
2022-09-11T13:14:00.275Z,98797.16
2022-09-11T13:15:05.238Z,98792.59
2022-09-11T13:16:26.620Z,98800.16
2022-09-11T13:17:49.292Z,98787.53
2022-09-11T13:19:10.469Z,98795.97
2022-09-11T13:20:23.266Z,98792.44
2022-09-11T13:21:26.843Z,98795.97
2022-09-11T13:22:31.385Z,98797.34
2022-09-11T13:23:35.003Z,98795.97
2022-09-11T13:24:39.380Z,98799.34
2022-09-11T13:25:43.004Z,98797.66
2022-09-11T13:26:46.639Z,98794.97
2022-09-11T13:27:57.563Z,98789.56
2022-09-11T13:29:01.971Z,98794.13
2022-09-11T13:30:17.416Z,98799.34
2022-09-11T13:31:35.789Z,98792.28
2022-09-11T13:32:39.718Z,98795.97
2022-09-11T13:33:49.351Z,98788.59
2022-09-11T13:35:02.516Z,98795.47
2022-09-11T13:36:07.381Z,98786.75
2022-09-11T13:37:46.966Z,98785.91
2022-09-11T13:39:01.733Z,98794.16
2022-09-11T13:40:08.282Z,98790.97
2022-09-11T13:41:22.352Z,98796.22
2022-09-11T13:42:26.336Z,98788.81
2022-09-11T13:43:46.035Z,98783.28
2022-09-11T13:44:59.391Z,98793.22
2022-09-11T13:46:15.087Z,98793.56
2022-09-11T13:47:28.386Z,98790.88
2022-09-11T13:57:18.270Z,98753.91
2022-09-11T13:58:32.973Z,98793.53
2022-09-11T13:59:49.478Z,98769.16
2022-09-11T14:00:55.635Z,98788.63
2022-09-11T14:02:01.408Z,98787.44
2022-09-11T14:03:22.856Z,98780.03
2022-09-11T14:04:33.305Z,98779.31
2022-09-11T14:05:37.076Z,98779.00
2022-09-11T14:06:46.815Z,98768.38
2022-09-11T14:07:53.234Z,98775.41
2022-09-11T14:08:57.774Z,98761.63